KAOO/AOO METAR and TAF weather

Enter ICAO airport designator
Station Type Date Time Source
KAOO METAR 2020/11/27 14:53 UTC NOAA

KAOO 271453Z AUTO 00000KT 10SM OVC033 09/07 A3011 RMK AO2 SLP200 60000 T00890067 50001


Station Type Date Time Source
KAOO Decoded METAR 2020/11/27 14:53 UTC NOAA

ALTOONA-BLAIR COUNTY AIRPORT, PA, United States (KAOO) 40-18N 78-19W 455M
Nov 27, 2020 - 09:53 AM EST / 2020.11.27 1453 UTC
Wind: Calm:0
Visibility: 10 mile(s):0
Sky conditions: overcast
Temperature: 48.0 F (8.9 C)
Dew Point: 44.1 F (6.7 C)
Relative Humidity: 86%
Pressure (altimeter): 30.11 in. Hg (1019 hPa)
Pressure tendency: 0.00 inches (0.1 hPa) higher than three hours ago
ob: KAOO 271453Z AUTO 00000KT 10SM OVC033 09/07 A3011 RMK AO2 SLP200 60000 T00890067 50001
cycle: 15

Station Type Date Time Source
KAOO TAF 2020/11/27 12:39 UTC NOAA

TAF KAOO 271137Z 2712/2812 27003KT 4SM BR OVC028
FM271300 27004KT P6SM OVC030
FM271500 27006KT P6SM OVC035

Example: see airport list